Time;durP1;ratioP1;P1;durP2;ratioP2;P2;SDS_P1;SDS_P2;PMS_P1;PMS_P2;Temp;Humidity;BMP_temperature;BMP_pressure;BME280_temperature;BME280_humidity;BME280_pressure;Samples;Min_cycle;Max_cycle;Signal;HPM_P1;HPM_P2
2021/12/02 00:01:32;;;;;;;52.45;7.60;;;2.90;99.90;;;;;;5023767;28;20058;-81
2021/12/02 00:03:59;;;;;;;44.67;7.28;;;2.90;99.90;;;;;;5019382;28;20014;-82
2021/12/02 00:06:26;;;;;;;44.58;8.38;;;2.90;99.90;;;;;;5019962;28;20022;-81
2021/12/02 00:08:53;;;;;;;40.88;7.32;;;3.00;99.90;;;;;;5022176;28;20157;-82
2021/12/02 00:11:20;;;;;;;23.23;4.80;;;2.80;99.90;;;;;;5019528;28;20112;-82
2021/12/02 00:21:20;;;;;;;15.93;4.57;;;2.70;99.90;;;;;;5038708;28;20475;-81
2021/12/02 00:24:07;;;;;;;14.45;4.95;;;2.60;99.90;;;;;;5042853;28;20076;-82
2021/12/02 00:26:35;;;;;;;14.50;5.65;;;2.60;99.90;;;;;;5035255;28;20026;-83
2021/12/02 00:29:05;;;;;;;16.90;6.30;;;2.50;99.90;;;;;;5031933;28;20022;-81
2021/12/02 00:31:35;;;;;;;15.07;6.50;;;2.50;99.90;;;;;;5010289;28;20029;-82
2021/12/02 00:34:05;;;;;;;24.05;7.63;;;2.60;99.90;;;;;;5020989;28;20081;-82
2021/12/02 00:36:33;;;;;;;22.25;9.82;;;2.40;99.90;;;;;;5051139;28;20461;-82
2021/12/02 00:39:05;;;;;;;67.90;32.95;;;2.40;99.90;;;;;;5052666;28;20097;-79
2021/12/02 00:41:32;;;;;;;58.00;28.85;;;2.40;99.90;;;;;;5037788;28;20013;-81
2021/12/02 00:43:59;;;;;;;61.85;30.88;;;2.50;99.90;;;;;;5048659;28;20018;-82
2021/12/02 00:46:34;;;;;;;55.08;25.75;;;2.60;99.90;;;;;;5044876;28;20033;-82
2021/12/02 00:49:03;;;;;;;45.20;21.92;;;2.70;99.90;;;;;;5041625;28;20017;-82
2021/12/02 00:51:32;;;;;;;40.85;18.55;;;2.80;99.90;;;;;;5032144;28;20025;-81
2021/12/02 00:54:05;;;;;;;39.75;18.90;;;2.70;99.90;;;;;;5041033;28;20017;-82
2021/12/02 00:56:31;;;;;;;49.10;18.65;;;2.90;99.90;;;;;;5042437;28;20084;-81
2021/12/02 00:58:58;;;;;;;37.63;16.67;;;2.70;99.90;;;;;;5034968;28;20030;-82
2021/12/02 01:01:26;;;;;;;47.55;15.45;;;2.90;99.90;;;;;;5045256;28;20029;-81
2021/12/02 01:03:58;;;;;;;34.63;15.43;;;2.80;99.90;;;;;;5050411;28;20029;-82
2021/12/02 01:06:25;;;;;;;40.63;15.23;;;2.60;99.90;;;;;;5025633;28;20032;-82
2021/12/02 01:08:51;;;;;;;35.72;15.65;;;2.70;99.90;;;;;;5047546;28;20026;-82
2021/12/02 01:11:18;;;;;;;35.33;15.13;;;2.80;99.90;;;;;;5050167;28;20068;-82
2021/12/02 01:13:45;;;;;;;33.10;13.15;;;2.80;99.90;;;;;;5038720;28;20436;-82
2021/12/02 01:16:12;;;;;;;34.88;12.52;;;2.70;99.90;;;;;;5038579;28;20031;-81
2021/12/02 01:18:38;;;;;;;36.65;15.80;;;2.70;99.90;;;;;;5052883;28;20094;-83
2021/12/02 01:21:05;;;;;;;18.65;10.20;;;2.70;99.90;;;;;;5038963;28;20060;-81
2021/12/02 01:23:33;;;;;;;40.67;14.95;;;5.10;99.90;;;;;;5050148;28;20537;-82
2021/12/02 01:26:07;;;;;;;41.22;14.27;;;4.90;99.90;;;;;;5060856;28;20033;-80
2021/12/02 01:28:36;;;;;;;33.30;14.00;;;4.10;99.90;;;;;;5064186;28;20029;-82
2021/12/02 01:31:02;;;;;;;31.83;13.60;;;4.20;99.90;;;;;;5064121;28;20120;-81
2021/12/02 01:33:29;;;;;;;23.15;13.75;;;3.90;99.90;;;;;;5053007;28;20108;-82
2021/12/02 01:36:03;;;;;;;26.08;14.43;;;4.10;99.90;;;;;;5042631;28;20041;-81
2021/12/02 01:38:30;;;;;;;34.47;17.20;;;4.80;99.90;;;;;;5048614;28;20169;-82
2021/12/02 01:40:58;;;;;;;34.83;19.15;;;5.50;99.90;;;;;;5040743;28;20057;-81
2021/12/02 01:43:48;;;;;;;37.75;18.00;;;6.40;97.80;;;;;;5042476;28;20029;-83
2021/12/02 01:46:23;;;;;;;36.70;17.58;;;6.40;95.10;;;;;;5043384;28;20021;-82
2021/12/02 01:49:06;;;;;;;33.00;15.48;;;6.10;94.50;;;;;;5034552;28;20032;-83
2021/12/02 01:51:44;;;;;;;29.13;13.35;;;5.80;95.90;;;;;;5030467;28;20021;-82
2021/12/02 01:54:13;;;;;;;23.60;10.63;;;5.70;95.50;;;;;;5055235;28;20028;-80
2021/12/02 01:57:13;;;;;;;23.02;9.35;;;5.90;94.00;;;;;;5052385;28;20430;-82
2021/12/02 01:59:39;;;;;;;28.73;12.23;;;5.90;93.10;;;;;;5050444;28;20491;-81
2021/12/02 02:02:10;;;;;;;37.30;15.13;;;6.20;92.40;;;;;;5045684;28;20024;-82
2021/12/02 02:04:37;;;;;;;32.10;14.40;;;5.90;94.10;;;;;;5033472;28;20070;-82
2021/12/02 02:07:13;;;;;;;29.60;12.75;;;5.90;93.40;;;;;;5049433;28;20021;-81
2021/12/02 02:09:39;;;;;;;30.40;14.05;;;6.00;92.50;;;;;;5046211;28;20029;-81
2021/12/02 02:12:08;;;;;;;36.88;16.42;;;5.70;92.90;;;;;;5045698;28;20097;-82
2021/12/02 02:14:34;;;;;;;30.40;12.60;;;5.80;91.40;;;;;;5044431;28;20049;-84
2021/12/02 02:17:08;;;;;;;39.47;14.77;;;6.20;88.80;;;;;;5049713;28;20023;-81
2021/12/02 02:19:34;;;;;;;38.40;16.70;;;6.50;86.50;;;;;;5036697;28;20536;-82
2021/12/02 02:22:00;;;;;;;49.38;18.73;;;6.80;83.00;;;;;;5052633;28;20072;-83
2021/12/02 02:24:29;;;;;;;44.78;18.75;;;6.60;85.60;;;;;;5045626;28;20024;-81
2021/12/02 02:26:56;;;;;;;40.25;17.88;;;6.80;82.40;;;;;;5051114;28;20056;-81
2021/12/02 02:29:22;;;;;;;40.55;18.35;;;6.80;80.40;;;;;;5026470;28;20053;-82
2021/12/02 02:31:49;;;;;;;31.10;13.68;;;6.80;81.80;;;;;;5049152;28;20022;-85
2021/12/02 02:34:15;;;;;;;29.48;13.60;;;7.20;76.50;;;;;;5051926;28;20049;-81
2021/12/02 02:36:55;;;;;;;26.75;11.65;;;7.30;74.60;;;;;;5049814;28;20091;-82
2021/12/02 02:39:21;;;;;;;27.02;12.70;;;7.70;71.70;;;;;;5041223;28;20421;-84
2021/12/02 02:41:59;;;;;;;40.03;13.85;;;7.90;69.70;;;;;;5049687;28;20052;-82
2021/12/02 02:44:29;;;;;;;37.53;15.25;;;7.80;69.20;;;;;;5043986;28;20032;-83
2021/12/02 02:46:56;;;;;;;46.55;15.57;;;7.90;66.50;;;;;;5041539;28;20366;-82
2021/12/02 02:49:22;;;;;;;39.83;14.50;;;8.30;66.10;;;;;;5043416;28;20112;-84
2021/12/02 02:51:49;;;;;;;32.58;15.73;;;8.80;61.20;;;;;;5043841;28;20029;-82
2021/12/02 02:54:16;;;;;;;30.80;14.20;;;8.70;61.00;;;;;;5045142;28;20092;-82
2021/12/02 02:56:53;;;;;;;35.45;15.40;;;8.70;60.50;;;;;;5043737;28;20025;-84
2021/12/02 02:59:33;;;;;;;35.00;14.10;;;8.60;60.80;;;;;;5046610;28;20075;-83
2021/12/02 03:07:32;;;;;;;46.78;17.15;;;8.60;60.30;;;;;;5045072;28;20028;-82
2021/12/02 03:10:26;;;;;;;35.42;12.75;;;9.00;58.60;;;;;;5042375;28;20112;-83
2021/12/02 03:12:56;;;;;;;32.15;14.82;;;9.50;56.80;;;;;;5044270;28;20037;-82
2021/12/02 03:18:31;;;;;;;35.80;13.07;;;9.40;57.30;;;;;;4995279;28;20524;-83
2021/12/02 03:20:58;;;;;;;42.22;13.35;;;9.10;57.20;;;;;;5050731;28;20055;-83
2021/12/02 03:23:24;;;;;;;36.10;11.73;;;9.10;57.50;;;;;;5036213;28;21196;-84
2021/12/02 03:25:51;;;;;;;40.28;11.23;;;9.30;56.50;;;;;;5039888;28;20033;-84
2021/12/02 03:28:17;;;;;;;29.42;10.00;;;9.60;54.40;;;;;;5024063;28;20503;-82
2021/12/02 03:30:43;;;;;;;25.52;8.93;;;9.70;53.70;;;;;;5046705;28;20071;-84
2021/12/02 03:33:09;;;;;;;22.15;9.10;;;9.90;53.00;;;;;;5015541;28;20031;-83
2021/12/02 03:35:35;;;;;;;28.23;10.07;;;9.80;53.50;;;;;;5027284;28;20041;-83
2021/12/02 03:38:02;;;;;;;30.48;9.73;;;10.20;52.70;;;;;;5041276;28;20021;-83
2021/12/02 03:40:31;;;;;;;29.20;9.90;;;10.40;51.20;;;;;;5041165;28;20041;-84
2021/12/02 03:42:58;;;;;;;25.65;9.98;;;10.20;51.90;;;;;;5044752;28;20026;-82
2021/12/02 03:45:25;;;;;;;33.28;10.75;;;10.50;50.50;;;;;;5024649;28;20033;-83
2021/12/02 03:47:53;;;;;;;32.67;9.57;;;10.70;49.80;;;;;;5040611;28;20032;-83
2021/12/02 03:50:20;;;;;;;25.02;8.90;;;10.80;49.30;;;;;;5024268;28;20488;-83
2021/12/02 03:52:46;;;;;;;33.22;10.00;;;10.70;49.40;;;;;;5020211;28;20348;-83
2021/12/02 03:55:12;;;;;;;27.83;8.90;;;10.90;48.40;;;;;;5019247;28;20103;-83
2021/12/02 03:57:39;;;;;;;17.15;6.28;;;10.90;48.40;;;;;;5040587;28;20044;-83
2021/12/02 04:00:06;;;;;;;11.30;5.03;;;11.00;48.50;;;;;;5045622;28;20032;-82
2021/12/02 04:02:32;;;;;;;16.00;4.75;;;11.00;47.90;;;;;;5025571;28;20087;-82
2021/12/02 04:04:58;;;;;;;9.20;3.63;;;11.20;47.80;;;;;;5018023;28;20039;-82
2021/12/02 04:07:26;;;;;;;13.20;4.70;;;11.30;47.80;;;;;;5036992;28;20029;-82
2021/12/02 04:09:53;;;;;;;9.73;4.80;;;11.20;48.30;;;;;;5018616;28;20057;-83
2021/12/02 04:15:02;;;;;;;21.38;7.05;;;11.20;49.40;;;;;;5037832;28;20029;-83
2021/12/02 04:17:43;;;;;;;23.55;8.65;;;11.20;50.20;;;;;;5037366;28;20036;-82
2021/12/02 04:20:33;;;;;;;40.97;10.90;;;11.20;50.40;;;;;;5022160;28;20052;-82
2021/12/02 04:22:59;;;;;;;37.03;11.23;;;11.20;51.20;;;;;;5028920;28;20073;-83
2021/12/02 04:25:26;;;;;;;37.25;12.25;;;;;;;;;;5024470;28;20097;-81
2021/12/02 04:27:55;;;;;;;42.47;12.60;;;;;;;;;;5046507;28;20020;-83
2021/12/02 04:30:23;;;;;;;28.17;9.98;;;;;;;;;;5027282;28;20498;-83
2021/12/02 04:32:49;;;;;;;29.15;10.80;;;;;;;;;;5036458;28;20024;-82
2021/12/02 04:35:16;;;;;;;52.90;13.10;;;;;;;;;;5011551;28;20081;-82
2021/12/02 04:37:48;;;;;;;41.80;12.07;;;;;;;;;;5016810;28;20481;-82
2021/12/02 04:40:16;;;;;;;36.75;10.55;;;;;;;;;;5021022;28;20069;-83
2021/12/02 04:42:43;;;;;;;41.13;10.82;;;;;;;;;;5017820;28;20022;-82
2021/12/02 04:45:14;;;;;;;36.30;10.63;;;;;;;;;;5017156;28;20479;-83
2021/12/02 04:47:41;;;;;;;34.85;11.07;;;;;;;;;;4997868;28;20022;-82
2021/12/02 04:50:09;;;;;;;20.35;8.30;;;;;;;;;;5003879;28;20109;-82
2021/12/02 04:52:35;;;;;;;32.90;8.23;;;;;;;;;;5000216;28;20033;-82
2021/12/02 04:55:02;;;;;;;24.88;8.43;;;;;;;;;;5029043;28;20041;-83
2021/12/02 04:57:28;;;;;;;31.73;9.27;;;;;;;;;;5000635;28;20042;-82
2021/12/02 04:59:55;;;;;;;26.42;8.35;;;;;;;;;;5018344;28;20037;-83
2021/12/02 05:02:22;;;;;;;18.50;6.60;;;;;;;;;;5020176;28;20049;-84
2021/12/02 05:04:49;;;;;;;23.33;9.45;;;;;;;;;;4991775;28;20554;-83
2021/12/02 05:07:18;;;;;;;24.75;7.82;;;;;;;;;;5023698;28;20371;-83
2021/12/02 05:09:44;;;;;;;50.97;8.75;;;;;;;;;;5005365;28;20060;-83
2021/12/02 05:12:11;;;;;;;22.95;6.22;;;;;;;;;;5024895;28;20033;-82
2021/12/02 05:14:37;;;;;;;27.80;7.50;;;;;;;;;;5023487;28;20033;-82
2021/12/02 05:17:03;;;;;;;23.63;6.38;;;;;;;;;;5020124;28;20033;-83
2021/12/02 05:19:30;;;;;;;26.42;6.25;;;;;;;;;;4999608;28;20043;-83
2021/12/02 05:21:56;;;;;;;17.60;6.85;;;;;;;;;;5023461;28;20021;-82
2021/12/02 05:24:23;;;;;;;20.38;5.55;;;;;;;;;;5023856;28;20363;-82
2021/12/02 05:26:49;;;;;;;20.67;5.20;;;;;;;;;;5019415;28;20021;-83
2021/12/02 05:29:15;;;;;;;14.32;5.07;;;;;;;;;;5033692;28;20029;-82
2021/12/02 05:31:42;;;;;;;15.73;5.63;;;;;;;;;;5008121;28;20026;-81
2021/12/02 05:34:08;;;;;;;16.35;5.22;;;;;;;;;;5042822;28;20017;-83
2021/12/02 05:36:35;;;;;;;13.50;4.90;;;;;;;;;;5034694;28;20376;-82
2021/12/02 05:39:01;;;;;;;17.20;5.72;;;;;;;;;;5059688;28;20108;-85
2021/12/02 05:41:29;;;;;;;23.48;6.15;;;;;;;;;;5038631;28;20018;-82
2021/12/02 05:43:55;;;;;;;20.77;4.75;;;;;;;;;;5052927;28;20052;-83
2021/12/02 05:46:21;;;;;;;11.40;4.40;;;;;;;;;;5020100;28;20035;-82
2021/12/02 05:48:48;;;;;;;11.45;4.70;;;;;;;;;;5038689;28;20020;-83
2021/12/02 05:51:14;;;;;;;34.53;18.23;;;;;;;;;;5039543;28;20116;-82
2021/12/02 05:53:44;;;;;;;14.18;5.50;;;;;;;;;;5040017;28;20033;-84
2021/12/02 05:56:10;;;;;;;17.42;4.72;;;;;;;;;;5022493;28;20033;-84
2021/12/02 05:58:36;;;;;;;12.82;3.22;;;;;;;;;;5040216;28;20037;-82
2021/12/02 06:01:03;;;;;;;10.07;3.67;;;;;;;;;;5039019;28;20056;-82
2021/12/02 06:03:30;;;;;;;15.00;3.80;;;;;;;;;;5030220;28;20060;-83
2021/12/02 06:05:59;;;;;;;9.32;3.00;;;;;;;;;;5040594;28;20114;-82
2021/12/02 06:08:25;;;;;;;9.32;3.75;;;;;;;;;;5022579;28;20025;-82
2021/12/02 06:10:52;;;;;;;10.65;4.40;;;;;;;;;;5023549;28;20030;-84
2021/12/02 06:13:19;;;;;;;9.63;3.50;;;;;;;;;;5035585;28;20063;-84
2021/12/02 06:15:48;;;;;;;14.80;3.85;;;;;;;;;;5028155;28;20064;-83
2021/12/02 06:18:15;;;;;;;13.32;3.95;;;;;;;;;;5024590;28;20060;-82
2021/12/02 06:20:42;;;;;;;8.00;3.55;;;;;;;;;;5042648;28;20476;-83
2021/12/02 06:23:09;;;;;;;9.07;4.38;;;;;;;;;;5045944;28;20139;-82
2021/12/02 06:28:06;;;;;;;14.00;4.88;;;;;;;;;;5040702;28;21650;-84
2021/12/02 06:30:32;;;;;;;12.75;4.40;;;;;;;;;;5041636;28;20175;-83
2021/12/02 06:32:58;;;;;;;25.10;6.22;;;;;;;;;;5023685;28;20037;-82
2021/12/02 06:35:25;;;;;;;21.95;5.70;;;;;;;;;;5009345;28;20046;-84
2021/12/02 06:37:52;;;;;;;19.15;5.72;;;;;;;;;;5018970;28;20029;-86
2021/12/02 06:40:19;;;;;;;12.90;4.22;;;;;;;;;;5011117;28;20053;-84
2021/12/02 06:42:48;;;;;;;8.50;3.92;;;;;;;;;;5003599;28;20025;-84
2021/12/02 06:45:14;;;;;;;16.15;4.70;;;;;;;;;;5016063;28;20072;-81
2021/12/02 06:47:51;;;;;;;11.65;4.03;;;;;;;;;;5019103;28;20026;-85
2021/12/02 06:50:20;;;;;;;8.43;3.50;;;;;;;;;;5017715;28;20034;-82
2021/12/02 06:52:47;;;;;;;9.38;4.10;;;;;;;;;;5022000;28;20026;-83
2021/12/02 06:55:14;;;;;;;9.25;4.60;;;;;;;;;;5003419;28;20095;-85
2021/12/02 06:57:40;;;;;;;8.05;3.60;;;;;;;;;;5019760;28;20025;-84
2021/12/02 07:00:08;;;;;;;10.55;4.43;;;;;;;;;;5024948;28;20025;-83
2021/12/02 07:02:38;;;;;;;12.50;4.43;;;;;;;;;;5023623;28;20406;-84
2021/12/02 07:05:09;;;;;;;12.45;5.95;;;;;;;;;;4978171;28;20099;-84
2021/12/02 07:07:37;;;;;;;10.95;4.50;;;;;;;;;;5020934;28;20022;-83
2021/12/02 07:10:07;;;;;;;8.40;4.20;;;;;;;;;;5006036;28;20057;-83
2021/12/02 07:12:35;;;;;;;8.82;3.78;;;;;;;;;;5020931;28;20127;-85
2021/12/02 07:15:08;;;;;;;10.38;4.40;;;;;;;;;;5023448;28;20464;-83
2021/12/02 07:17:34;;;;;;;12.77;4.93;;;;;;;;;;5022812;28;20477;-83
2021/12/02 07:20:01;;;;;;;9.73;4.20;;;;;;;;;;5019395;28;20537;-83
2021/12/02 07:22:28;;;;;;;10.65;5.07;;;;;;;;;;5010752;28;20033;-80
2021/12/02 07:24:54;;;;;;;10.25;4.55;;;;;;;;;;5033894;28;20025;-83
2021/12/02 07:27:21;;;;;;;11.30;4.47;;;;;;;;;;5033428;28;20022;-82
2021/12/02 07:29:47;;;;;;;8.00;3.92;;;;;;;;;;5022993;28;20105;-84
2021/12/02 07:32:14;;;;;;;14.27;4.80;;;;;;;;;;5004724;28;20461;-84
2021/12/02 07:34:43;;;;;;;13.48;5.55;;;;;;;;;;5008082;28;20534;-84
2021/12/02 07:37:19;;;;;;;16.55;6.07;;;;;;;;;;5037869;28;20032;-83
2021/12/02 07:39:46;;;;;;;14.05;5.75;;;;;;;;;;5041106;28;20463;-82
2021/12/02 07:42:12;;;;;;;12.85;5.82;;;;;;;;;;5023859;28;20060;-83
2021/12/02 07:44:39;;;;;;;18.33;6.30;;;;;;;;;;5038928;28;20033;-83
2021/12/02 07:47:07;;;;;;;17.85;5.28;;;;;;;;;;5036645;28;20022;-82
2021/12/02 07:49:33;;;;;;;13.50;5.32;;;;;;;;;;5040483;28;20024;-84
2021/12/02 07:52:00;;;;;;;16.08;5.30;;;;;;;;;;5036973;28;20144;-83
2021/12/02 07:54:27;;;;;;;14.52;4.00;;;;;;;;;;5038923;28;20350;-83
2021/12/02 07:56:54;;;;;;;7.90;3.38;;;;;;;;;;5038440;28;21529;-83
2021/12/02 07:59:21;;;;;;;9.05;4.20;;;;;;;;;;5023951;28;20029;-84
2021/12/02 08:01:48;;;;;;;10.65;3.92;;;;;;;;;;5023428;28;20551;-85
2021/12/02 08:07:23;;;;;;;14.10;4.70;;;;;;;;;;5057162;28;20518;-83
2021/12/02 08:09:52;;;;;;;16.35;5.15;;;;;;;;;;5061631;28;20028;-84
2021/12/02 08:12:18;;;;;;;16.08;5.50;;;;;;;;;;5066617;28;20039;-86
2021/12/02 08:14:44;;;;;;;17.40;5.57;;;;;;;;;;5062462;28;20039;-83
2021/12/02 08:17:13;;;;;;;13.43;4.97;;;;;;;;;;5041292;28;20473;-83
2021/12/02 08:19:40;;;;;;;18.52;5.32;;;;;;;;;;5061753;28;20020;-82
2021/12/02 08:22:06;;;;;;;18.67;5.25;;;;;;;;;;5060784;28;20016;-83
2021/12/02 08:24:32;;;;;;;13.00;4.43;;;;;;;;;;5058988;28;20021;-81
2021/12/02 08:26:59;;;;;;;17.73;6.30;;;;;;;;;;5040431;28;20039;-85
2021/12/02 08:29:25;;;;;;;10.82;4.00;;;;;;;;;;5060264;28;20134;-83
2021/12/02 08:31:52;;;;;;;14.93;5.05;;;;;;;;;;5058943;28;20025;-83
2021/12/02 08:34:18;;;;;;;11.75;4.00;;;;;;;;;;5068919;28;20044;-82
2021/12/02 08:36:49;;;;;;;9.52;4.53;;;;;;;;;;5059004;28;20083;-83
2021/12/02 08:39:23;;;;;;;10.90;4.40;;;;;;;;;;5043970;28;20086;-83
2021/12/02 08:41:51;;;;;;;12.00;4.63;;;;;;;;;;5058932;28;20082;-82
2021/12/02 08:44:20;;;;;;;13.70;5.20;;;;;;;;;;5063779;28;20024;-83
2021/12/02 08:46:50;;;;;;;7.25;4.10;;;;;;;;;;5058890;28;20021;-83
2021/12/02 08:49:19;;;;;;;12.82;5.15;;;;;;;;;;5075174;28;20361;-87
2021/12/02 08:51:46;;;;;;;9.02;5.28;;;;;;;;;;5056053;28;20020;-84
2021/12/02 08:54:18;;;;;;;10.45;4.03;;;;;;;;;;5058225;28;20050;-82
2021/12/02 08:56:45;;;;;;;16.77;5.38;;;;;;;;;;5050763;28;20033;-82
2021/12/02 08:59:11;;;;;;;11.15;4.68;;;;;;;;;;5053107;28;20036;-84
2021/12/02 09:01:38;;;;;;;9.02;4.38;;;;;;;;;;5058552;28;20029;-82
2021/12/02 09:04:05;;;;;;;9.75;4.32;;;;;;;;;;5035201;28;20037;-83
2021/12/02 09:06:31;;;;;;;10.73;5.30;;;;;;;;;;5054351;28;20028;-83
2021/12/02 09:08:59;;;;;;;11.18;4.50;;;;;;;;;;5040187;28;20029;-84
2021/12/02 09:11:27;;;;;;;13.80;6.03;;;;;;;;;;5059192;28;20039;-83
2021/12/02 09:13:57;;;;;;;8.80;5.13;;;;;;;;;;5040344;28;20476;-82
2021/12/02 09:16:24;;;;;;;12.77;6.10;;;;;;;;;;5061470;28;20040;-83
2021/12/02 09:18:51;;;;;;;17.73;6.47;;;;;;;;;;5061810;28;20017;-84
2021/12/02 09:21:17;;;;;;;14.82;6.45;;;;;;;;;;5057033;28;20036;-82
2021/12/02 09:23:44;;;;;;;12.60;5.78;;;;;;;;;;5057908;28;20480;-84
2021/12/02 09:26:10;;;;;;;32.85;9.75;;;;;;;;;;5063257;28;20425;-82
2021/12/02 09:28:36;;;;;;;35.38;9.35;;;;;;;;;;5066126;28;20139;-82
2021/12/02 09:31:03;;;;;;;29.67;8.52;;;;;;;;;;5065019;28;20531;-83
2021/12/02 09:33:29;;;;;;;36.75;10.15;;;;;;;;;;5063074;28;20032;-81
2021/12/02 09:36:01;;;;;;;41.25;10.23;;;;;;;;;;5059236;28;20125;-85
2021/12/02 09:38:28;;;;;;;19.42;7.35;;;;;;;;;;5061964;28;20048;-84
2021/12/02 09:40:57;;;;;;;19.17;8.93;;;;;;;;;;5060401;28;20528;-82
2021/12/02 09:43:23;;;;;;;20.83;8.88;;;;;;;;;;5040040;28;20743;-83
2021/12/02 09:45:50;;;;;;;29.20;10.07;;;;;;;;;;5058847;28;20068;-82
2021/12/02 09:48:16;;;;;;;23.88;9.50;;;;;;;;;;5042359;28;20105;-81
2021/12/02 09:50:52;;;;;;;24.08;9.77;;;;;;;;;;5057737;28;20052;-83
2021/12/02 09:53:22;;;;;;;25.67;11.32;;;;;;;;;;5038945;28;20036;-83
2021/12/02 09:56:03;;;;;;;32.22;10.93;;;;;;;;;;5044464;28;20029;-82
2021/12/02 09:58:30;;;;;;;25.92;11.98;;;;;;;;;;5060359;28;20032;-82
2021/12/02 10:01:08;;;;;;;22.75;10.63;;;;;;;;;;5041154;28;20078;-83
2021/12/02 10:03:43;;;;;;;26.52;11.00;;;;;;;;;;5043923;28;20487;-83
2021/12/02 10:06:19;;;;;;;22.30;10.68;;;;;;;;;;5040213;28;20033;-83
2021/12/02 10:09:08;;;;;;;24.40;11.50;;;;;;;;;;5058288;28;20031;-83
2021/12/02 10:14:39;;;;;;;24.70;11.68;;;;;;;;;;5051522;28;20183;-83
2021/12/02 10:17:13;;;;;;;25.92;11.55;;;;;;;;;;5062449;28;20025;-84
2021/12/02 10:19:58;;;;;;;26.85;12.63;;;;;;;;;;5065476;28;20028;-82
2021/12/02 10:22:25;;;;;;;28.80;12.35;;;;;;;;;;5048241;28;20024;-83
2021/12/02 10:24:52;;;;;;;26.88;12.15;;;;;;;;;;5040894;28;20059;-83
2021/12/02 10:27:18;;;;;;;24.48;13.40;;;;;;;;;;5056753;28;20567;-83
2021/12/02 10:29:48;;;;;;;28.15;12.90;;;;;;;;;;5065538;28;20024;-83
2021/12/02 10:32:18;;;;;;;35.33;17.05;;;;;;;;;;5059146;28;20021;-82
2021/12/02 10:35:02;;;;;;;46.30;20.88;;;;;;;;;;5053710;28;20534;-83
2021/12/02 10:37:30;;;;;;;34.35;18.27;;;;;;;;;;5058920;28;20024;-84
2021/12/02 10:40:13;;;;;;;42.00;22.63;;;;;;;;;;5040309;28;20037;-83
2021/12/02 10:42:42;;;;;;;42.03;18.80;;;;;;;;;;5059086;28;20059;-83
2021/12/02 10:45:19;;;;;;;44.45;20.98;;;;;;;;;;5057616;28;20310;-83
2021/12/02 10:47:53;;;;;;;45.15;20.83;;;;;;;;;;5048376;28;20028;-82
2021/12/02 10:50:21;;;;;;;48.22;23.27;;;;;;;;;;5059100;28;20043;-82
2021/12/02 10:52:47;;;;;;;41.40;21.88;;;;;;;;;;5057087;28;20885;-82
2021/12/02 10:55:15;;;;;;;57.85;21.92;;;;;;;;;;5056887;28;20082;-83
2021/12/02 10:58:02;;;;;;;48.13;20.98;;;;;;;;;;5056230;28;20024;-83
2021/12/02 11:00:30;;;;;;;44.70;18.13;;;;;;;;;;5059655;28;20044;-83
2021/12/02 11:02:58;;;;;;;37.13;12.60;;;;;;;;;;5058713;28;20127;-82
2021/12/02 11:05:30;;;;;;;27.50;10.63;;;;;;;;;;5041893;28;20121;-83
2021/12/02 11:07:56;;;;;;;46.13;14.60;;;;;;;;;;5048898;28;20032;-83
2021/12/02 11:10:24;;;;;;;34.13;12.20;;;;;;;;;;5041515;28;20064;-82
2021/12/02 11:12:51;;;;;;;32.45;11.05;;;;;;;;;;5057295;28;20673;-83
2021/12/02 11:15:21;;;;;;;35.05;14.43;;;;;;;;;;5048118;28;20051;-82
2021/12/02 11:17:57;;;;;;;31.50;11.68;;;;;;;;;;5062059;28;20017;-82
2021/12/02 11:20:24;;;;;;;40.45;12.60;;;;;;;;;;5059997;28;20032;-82
2021/12/02 11:22:55;;;;;;;25.35;10.70;;;;;;;;;;5044841;28;20420;-82
2021/12/02 11:25:22;;;;;;;19.48;8.45;;;;;;;;;;5058500;28;20032;-83
2021/12/02 11:27:50;;;;;;;28.27;9.18;;;;;;;;;;5066636;28;20048;-82
2021/12/02 11:30:23;;;;;;;19.58;8.00;;;;;;;;;;5065048;28;20529;-83
2021/12/02 11:32:56;;;;;;;19.42;7.60;;;;;;;;;;5064875;28;20111;-82
2021/12/02 11:35:35;;;;;;;17.05;6.40;;;;;;;;;;5058607;28;20045;-82
2021/12/02 11:38:07;;;;;;;19.45;6.47;;;;;;;;;;5065974;28;20096;-85
2021/12/02 11:40:35;;;;;;;18.90;6.57;;;;;;;;;;5043673;28;20032;-82
2021/12/02 11:43:02;;;;;;;14.27;5.97;;;;;;;;;;5062313;28;20040;-82
2021/12/02 11:45:30;;;;;;;19.25;5.30;;;;;;;;;;5052024;28;20032;-81
2021/12/02 11:47:56;;;;;;;17.67;5.93;;;;;;;;;;5066702;28;20258;-86
2021/12/02 11:50:24;;;;;;;21.40;6.18;;;;;;;;;;5041983;28;20029;-84
2021/12/02 11:52:50;;;;;;;15.43;5.25;;;;;;;;;;5061264;28;20456;-84
2021/12/02 11:55:25;;;;;;;12.73;4.50;;;;;;;;;;5046800;28;20025;-82
2021/12/02 11:57:52;;;;;;;10.38;5.63;;;;;;;;;;5055267;28;20032;-84
2021/12/02 12:00:20;;;;;;;12.73;4.45;;;;;;;;;;5062364;28;20349;-82
2021/12/02 12:02:48;;;;;;;12.32;3.60;;;;;;;;;;5043786;28;20032;-81
2021/12/02 12:05:15;;;;;;;15.70;4.05;;;;;;;;;;5060712;28;20107;-84
2021/12/02 12:07:43;;;;;;;12.75;4.85;;;;;;;;;;5063097;28;20605;-83
2021/12/02 12:10:17;;;;;;;10.02;4.22;;;;;;;;;;5063785;28;20388;-83
2021/12/02 12:15:58;;;;;;;12.48;4.07;;;;;;;;;;5051108;28;20482;-82
2021/12/02 12:18:25;;;;;;;11.82;4.38;;;;;;;;;;5057557;28;20029;-83
2021/12/02 12:21:31;;;;;;;14.35;4.63;;;;;;;;;;5061752;28;20028;-82
2021/12/02 12:24:00;;;;;;;15.48;4.55;;;;;;;;;;5061120;28;20036;-83
2021/12/02 12:26:31;;;;;;;9.45;4.38;;;;;;;;;;5065260;28;20353;-83
2021/12/02 12:29:07;;;;;;;22.15;5.60;;;;;;;;;;5067660;28;20017;-83
2021/12/02 12:31:44;;;;;;;12.48;4.93;;;;;;;;;;5046936;28;20028;-82
2021/12/02 12:34:47;;;;;;;19.95;5.85;;;;;;;;;;5070740;28;20487;-82
2021/12/02 12:37:24;;;;;;;20.95;7.07;;;;;;;;;;5066196;28;20028;-82
2021/12/02 12:40:09;;;;;;;25.77;6.43;;;;;;;;;;5047236;28;20409;-82
2021/12/02 12:42:38;;;;;;;18.67;7.05;;;;;;;;;;5074098;28;20044;-82
2021/12/02 12:45:05;;;;;;;16.30;6.13;;;;;;;;;;5077533;28;20461;-80
2021/12/02 12:47:58;;;;;;;21.25;5.75;;;;;;;;;;5081464;28;20021;-80
2021/12/02 12:50:24;;;;;;;15.15;6.30;;;;;;;;;;5059587;28;20098;-81
2021/12/02 12:52:55;;;;;;;19.63;6.88;;;;;;;;;;5076635;28;20024;-81
2021/12/02 12:55:23;;;;;;;20.50;7.20;;;;;;;;;;5069474;28;20107;-83
2021/12/02 12:58:19;;;;;;;21.88;7.97;;;;;;;;;;5066290;28;20033;-82
2021/12/02 13:00:50;;;;;;;16.50;6.70;;;;;;;;;;5053477;28;20059;-83
2021/12/02 13:03:23;;;;;;;14.90;7.93;;;;;;;;;;5065282;28;20033;-84
2021/12/02 13:06:02;;;;;;;18.27;7.28;;;;;;;;;;5069071;28;20039;-82
2021/12/02 13:08:40;;;;;;;15.15;6.40;;;;;;;;;;5048006;28;20032;-82
2021/12/02 13:11:19;;;;;;;13.68;6.63;;;;;;;;;;5065721;28;20066;-82
2021/12/02 13:13:46;;;;;;;12.57;6.38;;;;;;;;;;5070528;28;20053;-82
2021/12/02 13:16:16;;;;;;;16.50;6.10;;;;;;;;;;5066455;28;20025;-80
2021/12/02 13:18:44;;;;;;;16.52;7.68;;;;;;;;;;5048717;28;20363;-81
2021/12/02 13:24:13;;;;;;;14.93;7.00;;;;;;;;;;5066807;28;20031;-82
2021/12/02 13:26:43;;;;;;;15.73;7.78;;;;;;;;;;5074425;28;20455;-82
2021/12/02 13:29:11;;;;;;;19.67;8.18;;;;;;;;;;5067540;28;20082;-82
2021/12/02 13:31:39;;;;;;;20.00;6.65;;;;;;;;;;5069240;28;20094;-83
2021/12/02 13:34:12;;;;;;;18.10;7.35;;;;;;;;;;5066508;28;20017;-82
2021/12/02 13:36:41;;;;;;;20.15;8.05;;;;;;;;;;5045647;28;20024;-82
2021/12/02 13:39:21;;;;;;;23.95;8.50;;;;;;;;;;5072838;28;20020;-82
2021/12/02 13:41:52;;;;;;;21.17;7.55;;;;;;;;;;5066610;28;20020;-82
2021/12/02 13:44:24;;;;;;;13.77;6.57;;;;;;;;;;5044849;28;20070;-83
2021/12/02 13:46:58;;;;;;;18.25;6.75;;;;;;;;;;5064332;28;20029;-83
2021/12/02 13:49:27;;;;;;;18.58;7.32;;;;;;;;;;5045913;28;20044;-82
2021/12/02 13:54:49;;;;;;;24.10;11.10;;;;;;;;;;5064960;28;20036;-81
2021/12/02 13:57:36;;;;;;;36.17;16.00;;;;;;;;;;5060039;28;20063;-83
2021/12/02 14:00:12;;;;;;;44.30;15.55;;;;;;;;;;5071010;28;20036;-83
2021/12/02 14:02:40;;;;;;;48.45;19.48;;;;;;;;;;5065916;28;20024;-81
2021/12/02 14:05:07;;;;;;;66.85;23.58;;;;;;;;;;5058704;28;20029;-82
2021/12/02 14:07:38;;;;;;;54.42;19.98;;;;;;;;;;5061231;28;20028;-84
2021/12/02 14:10:07;;;;;;;55.25;21.88;;;;;;;;;;5050717;28;20024;-82
2021/12/02 14:12:46;;;;;;;68.90;32.58;;;;;;;;;;5070654;28;20456;-82
2021/12/02 14:15:16;;;;;;;71.43;30.33;;;;;;;;;;5064219;28;20090;-82
2021/12/02 14:17:48;;;;;;;69.57;38.95;;;;;;;;;;5073085;28;20060;-82
2021/12/02 14:20:15;;;;;;;108.53;46.45;;;;;;;;;;5075504;28;20415;-82
2021/12/02 14:22:43;;;;;;;114.35;54.05;;;;;;;;;;5070059;28;20467;-84
2021/12/02 14:25:10;;;;;;;125.93;63.33;;;;;;;;;;5067740;28;20032;-83
2021/12/02 14:27:37;;;;;;;116.75;61.72;;;;;;;;;;5066428;28;20075;-83
2021/12/02 14:30:07;;;;;;;132.75;62.83;;;;;;;;;;5059370;28;20028;-82
2021/12/02 14:32:33;;;;;;;117.43;59.97;;;;;;;;;;5077179;28;20024;-81
2021/12/02 14:35:11;;;;;;;129.00;60.97;;;;;;;;;;5055302;28;20508;-83
2021/12/02 14:37:38;;;;;;;106.53;52.65;;;;;;;;;;5070147;28;20094;-81
2021/12/02 14:40:05;;;;;;;87.90;46.30;;;;;;;;;;5066980;28;20027;-82
2021/12/02 14:42:31;;;;;;;86.95;44.13;;;;;;;;;;5080431;28;20028;-82